sim
Sign-in with your pilot id or email,
or register
Callsign
Passwort

Schedule Details

Flight Number: EWG9745 (2)
Departure: Geneva International Airport (LSGG) at 13:15
Arrival: Dusseldorf International Airport (EDDL) at 15:00
Route: Eurowings Passenger Schedule. Enter filed route here before submitting Pirep.

Weather Information
Getting current METAR information for LSGG 101650Z 24009KT 9999 FEW080 14/02 Q1012 NOSIG
Getting current METAR information for EDDL 101650Z 15011KT 4500 -RADZ BKN008 OVC015 09/09 Q1008 NOSIG

Schedule Frequency

Route Map